createdAt,value
2023-04-25T00:05:13.222Z,0.90
2023-04-25T00:10:35.110Z,0.80
2023-04-25T00:15:57.698Z,0.80
2023-04-25T00:21:21.159Z,0.75
2023-04-25T00:26:42.984Z,0.70
2023-04-25T00:32:05.031Z,0.82
2023-04-25T00:37:27.071Z,0.80
2023-04-25T00:42:49.265Z,1.00
2023-04-25T00:48:11.347Z,0.70
2023-04-25T00:53:33.827Z,0.85
2023-04-25T00:58:57.954Z,0.82
2023-04-25T01:04:20.112Z,1.00
2023-04-25T01:09:42.357Z,0.93
2023-04-25T01:15:04.717Z,0.82
2023-04-25T01:20:28.154Z,1.00
2023-04-25T01:25:50.737Z,0.80
2023-04-25T01:31:13.334Z,0.90
2023-04-25T01:36:36.278Z,0.95
2023-04-25T01:41:58.427Z,0.98
2023-04-25T01:47:20.274Z,1.40
2023-04-25T01:52:42.200Z,1.00
2023-04-25T01:58:05.044Z,0.88
2023-04-25T02:03:27.179Z,0.60
2023-04-25T02:08:49.270Z,0.70
2023-04-25T02:14:11.011Z,0.90
2023-04-25T02:19:32.945Z,0.80
2023-04-25T02:24:55.262Z,0.93
2023-04-25T02:30:17.198Z,0.73
2023-04-25T02:35:39.089Z,1.00
2023-04-25T02:41:01.188Z,0.70
2023-04-25T02:46:32.071Z,0.55
2023-04-25T02:52:01.024Z,0.90
2023-04-25T02:57:22.820Z,1.13
2023-04-25T03:02:44.739Z,0.85
2023-04-25T03:08:06.566Z,1.00
2023-04-25T03:13:28.704Z,1.10
2023-04-25T03:18:51.658Z,1.02
2023-04-25T03:24:13.840Z,1.25
2023-04-25T03:29:35.624Z,0.98
2023-04-25T03:34:57.449Z,1.00
2023-04-25T03:40:19.209Z,0.90
2023-04-25T03:45:41.172Z,1.23
2023-04-25T03:51:02.940Z,1.02
2023-04-25T03:56:25.175Z,0.93
2023-04-25T04:01:46.994Z,1.02
2023-04-25T04:07:08.865Z,1.00
2023-04-25T04:12:30.763Z,1.15
2023-04-25T04:17:52.609Z,1.10
2023-04-25T04:23:14.720Z,1.00
2023-04-25T04:28:36.946Z,1.20
2023-04-25T04:33:58.901Z,1.00
2023-04-25T04:39:21.680Z,1.15
2023-04-25T04:44:45.817Z,1.02
2023-04-25T04:50:10.532Z,1.45
2023-04-25T04:55:32.431Z,1.20
2023-04-25T05:00:54.235Z,1.02
2023-04-25T05:06:16.264Z,0.85
2023-04-25T05:11:38.056Z,0.90
2023-04-25T05:16:59.893Z,0.93
2023-04-25T05:22:22.009Z,0.95
2023-04-25T05:27:43.993Z,0.90
2023-04-25T05:33:05.790Z,0.90
2023-04-25T05:38:27.563Z,0.75
2023-04-25T05:43:51.131Z,1.10
2023-04-25T05:49:13.238Z,0.88
2023-04-25T05:54:35.151Z,0.77
2023-04-25T05:59:56.980Z,0.98
2023-04-25T06:05:19.022Z,0.98
2023-04-25T06:10:41.240Z,0.80
2023-04-25T06:16:03.011Z,0.65
2023-04-25T06:21:24.893Z,1.00
2023-04-25T06:26:46.626Z,1.00
2023-04-25T06:32:08.467Z,1.10
2023-04-25T06:37:30.301Z,1.38
2023-04-25T06:42:52.082Z,1.00
2023-04-25T06:48:13.852Z,1.10
2023-04-25T06:53:35.672Z,1.10
2023-04-25T06:58:57.555Z,1.08
2023-04-25T07:04:19.617Z,1.08
2023-04-25T07:09:41.594Z,1.20
2023-04-25T07:15:07.205Z,1.02
2023-04-25T07:25:50.822Z,1.58
2023-04-25T07:31:12.677Z,1.27
2023-04-25T07:36:34.526Z,1.25
2023-04-25T07:41:56.339Z,1.48
2023-04-25T07:47:20.317Z,0.90
2023-04-25T07:52:42.289Z,1.10
2023-04-25T07:58:04.070Z,1.30
2023-04-25T08:03:26.060Z,1.10
2023-04-25T08:08:48.231Z,0.90
2023-04-25T08:14:10.275Z,1.23
2023-04-25T08:19:32.120Z,1.08
2023-04-25T08:24:53.932Z,1.23
2023-04-25T08:30:16.021Z,1.17
2023-04-25T08:35:37.982Z,1.15
2023-04-25T08:41:01.135Z,0.88
2023-04-25T08:46:24.367Z,0.80
2023-04-25T08:51:52.442Z,1.20
2023-04-25T08:57:16.664Z,1.02
2023-04-25T09:02:38.885Z,1.10
2023-04-25T09:08:02.119Z,1.42
2023-04-25T09:13:29.254Z,1.33
2023-04-25T09:18:51.443Z,1.17
2023-04-25T09:24:13.764Z,1.05
2023-04-25T09:29:37.553Z,0.80
2023-04-25T09:34:59.553Z,1.00
2023-04-25T09:40:21.530Z,0.75
2023-04-25T09:45:48.490Z,1.00
2023-04-25T09:51:17.852Z,1.00
2023-04-25T09:56:40.265Z,0.90
2023-04-25T10:02:03.030Z,0.73
2023-04-25T10:07:27.931Z,0.80
2023-04-25T10:12:50.205Z,0.97
2023-04-25T10:18:12.363Z,0.95
2023-04-25T10:23:38.197Z,0.75
2023-04-25T10:29:04.978Z,0.80
2023-04-25T10:34:42.821Z,0.60
2023-04-25T10:40:13.999Z,1.10
2023-04-25T10:45:52.822Z,0.70
2023-04-25T10:51:47.310Z,0.60
2023-04-25T10:57:29.030Z,0.60
2023-04-25T11:02:59.388Z,0.70
2023-04-25T11:08:38.415Z,0.70
2023-04-25T11:14:00.207Z,0.52
2023-04-25T11:19:22.151Z,0.70
2023-04-25T11:24:44.441Z,0.85
2023-04-25T11:30:14.629Z,0.80
2023-04-25T11:35:36.788Z,0.63
2023-04-25T11:40:58.739Z,0.70
2023-04-25T11:46:21.522Z,0.95
2023-04-25T11:51:45.081Z,0.82
2023-04-25T11:57:07.052Z,0.80
2023-04-25T12:02:29.340Z,0.80
2023-04-25T12:07:51.632Z,0.65
2023-04-25T12:13:21.620Z,0.82
2023-04-25T12:18:43.412Z,0.70
2023-04-25T12:24:20.718Z,0.50
2023-04-25T12:29:52.568Z,0.60
2023-04-25T12:35:14.372Z,0.40
2023-04-25T12:40:36.485Z,0.70
2023-04-25T12:45:58.529Z,0.63
2023-04-25T12:51:20.298Z,0.52
2023-04-25T12:56:43.041Z,0.60
2023-04-25T13:02:04.909Z,0.60
2023-04-25T13:07:26.803Z,0.70
2023-04-25T13:12:48.586Z,0.60
2023-04-25T13:18:10.488Z,0.50
2023-04-25T13:23:32.341Z,0.68
2023-04-25T13:28:54.247Z,0.80
2023-04-25T13:34:16.115Z,0.60
2023-04-25T13:39:38.018Z,0.40
2023-04-25T13:44:59.807Z,0.80
2023-04-25T13:50:22.249Z,0.55
2023-04-25T13:55:44.069Z,0.70
2023-04-25T14:01:06.110Z,0.70
2023-04-25T14:06:28.658Z,0.50
2023-04-25T14:11:50.945Z,0.57
2023-04-25T14:17:12.906Z,0.50
2023-04-25T14:22:35.121Z,0.40
2023-04-25T14:27:57.066Z,0.60
2023-04-25T14:33:18.849Z,0.60
2023-04-25T14:38:40.893Z,0.57
2023-04-25T14:44:02.782Z,0.40
2023-04-25T14:49:24.580Z,0.68
2023-04-25T14:54:46.553Z,0.60
2023-04-25T15:00:10.723Z,0.55
2023-04-25T15:05:32.584Z,1.27
2023-04-25T15:10:54.576Z,1.02
2023-04-25T15:16:16.543Z,1.23
2023-04-25T15:21:38.477Z,1.42
2023-04-25T15:27:00.735Z,0.93
2023-04-25T15:32:23.910Z,1.00
2023-04-25T15:37:46.491Z,0.90
2023-04-25T15:43:11.283Z,0.47
2023-04-25T15:48:33.709Z,0.97
2023-04-25T15:53:56.683Z,0.73
2023-04-25T15:59:18.506Z,0.75
2023-04-25T16:04:40.522Z,0.60
2023-04-25T16:10:02.446Z,1.13
2023-04-25T16:15:24.796Z,1.50
2023-04-25T16:20:46.581Z,1.17
2023-04-25T16:26:09.182Z,1.10
2023-04-25T16:31:31.057Z,1.00
2023-04-25T16:36:55.081Z,1.00
2023-04-25T16:42:18.003Z,0.80
2023-04-25T16:47:39.844Z,0.75
2023-04-25T16:53:01.800Z,1.20
2023-04-25T16:58:23.633Z,0.70
2023-04-25T17:03:45.657Z,0.70
2023-04-25T17:09:08.512Z,0.68
2023-04-25T17:14:30.378Z,0.57
2023-04-25T17:19:52.327Z,0.70
2023-04-25T17:25:14.049Z,0.70
2023-04-25T17:30:36.228Z,1.05
2023-04-25T17:35:58.286Z,0.63
2023-04-25T17:41:21.092Z,0.60
2023-04-25T17:46:42.929Z,0.70
2023-04-25T17:52:05.184Z,0.55
2023-04-25T17:57:27.504Z,0.45
2023-04-25T18:02:51.432Z,0.73
2023-04-25T18:08:14.013Z,0.60
2023-04-25T18:13:37.429Z,0.93
2023-04-25T18:19:05.530Z,0.93
2023-04-25T18:24:27.628Z,0.45
2023-04-25T18:29:49.578Z,0.80
2023-04-25T18:35:12.428Z,0.80
2023-04-25T18:40:35.179Z,0.70
2023-04-25T18:45:59.472Z,0.80
2023-04-25T18:51:29.672Z,0.40
2023-04-25T18:56:51.659Z,1.00
2023-04-25T19:02:16.307Z,0.55
2023-04-25T19:07:38.596Z,0.90
2023-04-25T19:13:00.945Z,1.55
2023-04-25T19:18:23.368Z,1.35
2023-04-25T19:23:45.202Z,1.10
2023-04-25T19:29:12.754Z,0.82
2023-04-25T19:34:34.588Z,1.00
2023-04-25T19:39:57.074Z,0.85
2023-04-25T19:45:18.987Z,1.33
2023-04-25T19:50:41.994Z,1.40
2023-04-25T19:56:03.838Z,1.52
2023-04-25T20:01:26.547Z,1.60
2023-04-25T20:06:48.362Z,0.90
2023-04-25T20:12:12.023Z,1.20
2023-04-25T20:17:35.068Z,1.02
2023-04-25T20:22:56.929Z,0.98
2023-04-25T20:28:18.952Z,1.17
2023-04-25T20:33:43.897Z,1.33
2023-04-25T20:39:05.789Z,1.80
2023-04-25T20:44:27.596Z,1.40
2023-04-25T20:49:49.620Z,0.90
2023-04-25T20:55:12.309Z,1.00
2023-04-25T21:00:35.184Z,1.55
2023-04-25T21:05:57.334Z,1.63
2023-04-25T21:11:19.725Z,0.70
2023-04-25T21:16:42.877Z,0.80
2023-04-25T21:22:05.100Z,0.90
2023-04-25T21:27:26.952Z,0.70
2023-04-25T21:32:51.686Z,0.88
2023-04-25T21:38:14.865Z,0.82
2023-04-25T21:43:37.004Z,0.80
2023-04-25T21:48:58.963Z,0.85
2023-04-25T21:54:20.787Z,0.60
2023-04-25T21:59:43.637Z,0.82
2023-04-25T22:05:06.666Z,0.70
2023-04-25T22:10:28.664Z,0.70
2023-04-25T22:15:50.735Z,0.50
2023-04-25T22:21:13.095Z,0.63
2023-04-25T22:26:34.961Z,0.40
2023-04-25T22:31:57.099Z,0.40
2023-04-25T22:37:18.946Z,0.43
2023-04-25T22:42:42.439Z,0.60
2023-04-25T22:48:04.430Z,0.43
2023-04-25T22:53:26.653Z,0.50
2023-04-25T22:58:50.025Z,0.50
2023-04-25T23:04:12.217Z,0.65
2023-04-25T23:09:34.498Z,0.50
2023-04-25T23:14:56.292Z,0.40
2023-04-25T23:20:18.100Z,0.50
2023-04-25T23:25:43.269Z,0.57
2023-04-25T23:31:12.572Z,0.80
2023-04-25T23:36:34.654Z,0.50
2023-04-25T23:41:58.011Z,0.38
2023-04-25T23:47:20.638Z,0.30
2023-04-25T23:52:42.641Z,0.40
2023-04-25T23:58:04.519Z,0.52
